Time;durP1;ratioP1;P1;durP2;ratioP2;P2;SDS_P1;SDS_P2;PMS_P1;PMS_P2;Temp;Humidity;BMP_temperature;BMP_pressure;BME280_temperature;BME280_humidity;BME280_pressure;Samples;Min_cycle;Max_cycle;Signal;HPM_P1;HPM_P2
2021/12/03 00:00:57;;;;;;;12.95;6.22;;;;;;;25.82;32.24;95909.72;5021722;28;20105;-30
2021/12/03 00:03:22;;;;;;;11.48;6.53;;;;;;;25.79;32.02;95912.59;5030430;28;20035;-31
2021/12/03 00:05:49;;;;;;;11.80;6.00;;;;;;;25.82;32.02;95920.22;5030124;28;20419;-31
2021/12/03 00:08:14;;;;;;;12.45;6.20;;;;;;;25.83;31.99;95921.91;5029233;28;20033;-32
2021/12/03 00:10:40;;;;;;;9.90;5.68;;;;;;;25.82;32.23;95925.47;5031093;28;20033;-35
2021/12/03 00:13:06;;;;;;;9.27;5.32;;;;;;;25.82;32.24;95928.09;5027982;28;20025;-28
2021/12/03 00:15:32;;;;;;;8.93;5.38;;;;;;;25.82;32.10;95929.91;5028873;28;20037;-28
2021/12/03 00:17:57;;;;;;;11.27;5.40;;;;;;;25.81;32.19;95934.31;5029361;28;20033;-28
2021/12/03 00:20:24;;;;;;;10.43;5.53;;;;;;;25.81;32.18;95950.06;5029886;28;20479;-31
2021/12/03 00:22:50;;;;;;;9.50;5.63;;;;;;;25.81;32.01;95949.19;5034659;28;20051;-32
2021/12/03 00:25:16;;;;;;;13.02;5.70;;;;;;;25.79;32.08;95941.44;5035069;28;20029;-32
2021/12/03 00:27:41;;;;;;;9.88;4.88;;;;;;;25.79;32.06;95957.19;5035767;28;20073;-30
2021/12/03 00:30:08;;;;;;;13.30;5.72;;;;;;;25.79;31.96;95967.69;5036182;28;20059;-32
2021/12/03 00:32:33;;;;;;;10.85;5.25;;;;;;;25.79;31.93;95977.34;5044342;28;20060;-30
2021/12/03 00:34:59;;;;;;;8.30;4.75;;;;;;;25.78;31.92;95987.00;5039524;28;20039;-27
2021/12/03 00:37:24;;;;;;;9.55;4.60;;;;;;;25.78;31.88;95986.16;5029924;28;20491;-30
2021/12/03 00:39:50;;;;;;;9.15;5.20;;;;;;;25.77;31.96;95982.69;5031269;28;20083;-33
2021/12/03 00:42:17;;;;;;;9.70;4.82;;;;;;;25.77;31.93;95976.59;5029685;28;20037;-28
2021/12/03 00:44:45;;;;;;;10.50;5.07;;;;;;;25.76;31.99;95983.63;5036443;28;20040;-30
2021/12/03 00:47:11;;;;;;;8.75;4.38;;;;;;;25.77;31.69;95994.97;5018510;28;22699;-31
2021/12/03 00:49:36;;;;;;;8.80;4.78;;;;;;;25.77;31.79;96000.19;5029474;28;20048;-30
2021/12/03 00:52:02;;;;;;;8.25;4.63;;;;;;;25.75;31.79;96002.97;5029614;28;20664;-30
2021/12/03 00:54:27;;;;;;;10.45;5.07;;;;;;;25.75;32.21;96008.22;5033659;28;20663;-32
2021/12/03 00:56:53;;;;;;;7.45;4.55;;;;;;;25.76;31.73;96014.28;5029798;28;20032;-31
2021/12/03 00:59:18;;;;;;;13.05;5.47;;;;;;;25.76;31.69;96016.91;5028664;28;20025;-33
2021/12/03 01:01:43;;;;;;;11.20;4.45;;;;;;;25.75;31.68;96013.47;5029799;28;20025;-31
2021/12/03 01:04:09;;;;;;;8.18;4.53;;;;;;;25.74;31.78;96017.00;5015121;28;20028;-30
2021/12/03 01:06:34;;;;;;;6.70;4.32;;;;;;;25.75;31.68;96023.94;5032096;28;20497;-32
2021/12/03 01:09:00;;;;;;;8.68;4.40;;;;;;;25.75;31.57;96031.81;5030758;28;20041;-31
2021/12/03 01:11:25;;;;;;;8.50;4.38;;;;;;;25.74;31.67;96030.13;5027840;28;20029;-32
2021/12/03 01:13:51;;;;;;;11.60;4.20;;;;;;;25.74;31.69;96030.13;5030229;28;21361;-33
2021/12/03 01:16:16;;;;;;;8.43;4.53;;;;;;;25.73;31.74;96041.56;5029452;28;20063;-30
2021/12/03 01:18:42;;;;;;;9.00;4.05;;;;;;;25.74;31.56;96042.41;5026117;28;20614;-29
2021/12/03 01:21:07;;;;;;;6.25;3.97;;;;;;;25.72;31.58;96050.38;5027993;28;20059;-34
2021/12/03 01:23:33;;;;;;;11.43;4.38;;;;;;;25.72;31.58;96047.75;5030508;28;20115;-32
2021/12/03 01:25:58;;;;;;;6.90;4.05;;;;;;;25.72;31.60;96053.00;5028652;28;20048;-30
2021/12/03 01:28:26;;;;;;;5.82;3.88;;;;;;;25.72;31.54;96055.63;5029634;28;20045;-31
2021/12/03 01:30:52;;;;;;;6.43;3.67;;;;;;;25.70;31.39;96053.09;5029536;28;20024;-32
2021/12/03 01:33:17;;;;;;;6.20;3.92;;;;;;;25.71;31.57;96059.19;5029076;28;20124;-30
2021/12/03 01:35:43;;;;;;;7.10;3.90;;;;;;;25.67;31.49;96042.78;5029405;28;20340;-31
2021/12/03 01:38:08;;;;;;;6.80;3.70;;;;;;;25.71;31.47;96059.19;5034860;28;20050;-32
2021/12/03 01:40:35;;;;;;;7.13;3.80;;;;;;;25.70;31.61;96052.25;5033088;28;20048;-30
2021/12/03 01:43:01;;;;;;;9.18;3.53;;;;;;;25.70;31.50;96062.75;5027289;28;20781;-32
2021/12/03 01:45:30;;;;;;;6.93;3.72;;;;;;;25.70;31.44;96065.38;5029356;28;20086;-29
2021/12/03 01:47:56;;;;;;;7.45;4.00;;;;;;;25.69;31.36;96063.69;5022959;28;20112;-32
2021/12/03 01:50:31;;;;;;;6.07;3.33;;;;;;;25.70;31.41;96062.75;5031631;28;20464;-28
2021/12/03 01:52:56;;;;;;;7.00;3.45;;;;;;;25.69;31.42;96063.69;5027374;28;20029;-30
2021/12/03 01:55:22;;;;;;;8.60;3.50;;;;;;;25.68;31.60;96069.88;5026755;28;20536;-30
2021/12/03 01:57:47;;;;;;;5.55;3.38;;;;;;;25.68;31.28;96072.50;5031277;28;20024;-32
2021/12/03 02:00:20;;;;;;;5.40;3.42;;;;;;;25.68;31.37;96070.75;5030738;28;20081;-32
2021/12/03 02:02:45;;;;;;;5.82;3.60;;;;;;;25.68;31.49;96077.75;5028662;28;20025;-30
2021/12/03 02:05:10;;;;;;;4.15;2.92;;;;;;;25.68;31.53;96069.88;5028950;28;20059;-32
2021/12/03 02:07:36;;;;;;;5.60;3.35;;;;;;;25.67;31.50;96074.28;5028915;28;20033;-32
2021/12/03 02:10:01;;;;;;;5.57;3.03;;;;;;;25.67;31.60;96078.72;5032421;28;20090;-32
2021/12/03 02:12:27;;;;;;;5.35;3.15;;;;;;;25.65;31.46;96068.31;5030708;28;20036;-31
2021/12/03 02:14:52;;;;;;;4.90;3.30;;;;;;;25.66;31.63;96077.84;5032831;28;20032;-33
2021/12/03 02:17:18;;;;;;;5.28;2.78;;;;;;;25.65;31.43;96073.56;5028510;28;20039;-30
2021/12/03 02:19:43;;;;;;;4.35;2.95;;;;;;;25.66;31.35;96080.47;5028300;28;20036;-28
2021/12/03 02:22:08;;;;;;;5.80;2.97;;;;;;;25.65;31.62;96080.56;5027488;28;20044;-32
2021/12/03 02:24:34;;;;;;;4.70;2.67;;;;;;;25.64;31.38;96089.38;5034959;28;20032;-32
2021/12/03 02:26:59;;;;;;;5.93;3.20;;;;;;;25.64;31.43;96085.00;5034173;28;20479;-30
2021/12/03 02:29:26;;;;;;;6.35;3.00;;;;;;;25.65;31.47;96091.06;5036316;28;20041;-33
2021/12/03 02:31:53;;;;;;;4.47;3.10;;;;;;;25.64;31.53;96097.25;5030055;28;20642;-32
2021/12/03 02:34:18;;;;;;;6.63;2.78;;;;;;;25.64;31.57;96094.63;5032292;28;20033;-29
2021/12/03 02:36:43;;;;;;;4.50;2.80;;;;;;;25.63;31.37;96092.97;5031509;28;20028;-34
2021/12/03 02:39:09;;;;;;;3.70;2.70;;;;;;;25.64;31.43;96084.13;5031920;28;20036;-32
2021/12/03 02:41:34;;;;;;;3.47;2.47;;;;;;;25.64;31.47;96089.38;5033864;28;20094;-31
2021/12/03 02:44:00;;;;;;;5.43;2.60;;;;;;;25.62;31.44;96086.84;5032848;28;20041;-36
2021/12/03 02:46:25;;;;;;;6.10;2.88;;;;;;;25.62;31.57;96086.03;5031509;28;20092;-30
2021/12/03 02:48:50;;;;;;;5.63;2.80;;;;;;;25.62;31.36;96086.03;5033738;28;20036;-31
2021/12/03 02:51:16;;;;;;;4.03;2.60;;;;;;;25.62;31.37;96088.66;5032355;28;20044;-31
2021/12/03 02:53:41;;;;;;;6.85;2.60;;;;;;;25.61;31.47;96089.56;5034488;28;20024;-34
2021/12/03 02:56:07;;;;;;;4.82;2.45;;;;;;;25.61;31.41;96093.06;5036570;28;20503;-32
2021/12/03 02:58:33;;;;;;;4.95;2.75;;;;;;;25.62;31.47;96091.28;5037745;28;20033;-32
2021/12/03 03:00:58;;;;;;;3.72;2.35;;;;;;;25.62;31.39;96101.78;5035789;28;20041;-31
2021/12/03 03:03:24;;;;;;;4.57;2.50;;;;;;;25.61;31.40;96094.81;5032231;28;20612;-33
2021/12/03 03:05:53;;;;;;;4.13;2.55;;;;;;;25.62;31.59;96101.78;5033079;28;20024;-29
2021/12/03 03:08:19;;;;;;;4.78;2.45;;;;;;;25.60;31.55;96099.25;5032048;28;20028;-29
2021/12/03 03:10:44;;;;;;;4.38;2.40;;;;;;;25.60;31.44;96106.25;5033753;28;20971;-30
2021/12/03 03:13:10;;;;;;;6.00;2.80;;;;;;;25.60;31.39;96106.25;5029477;28;20033;-28
2021/12/03 03:15:37;;;;;;;2.83;2.08;;;;;;;25.60;31.56;96109.75;5032450;28;20035;-33
2021/12/03 03:18:18;;;;;;;4.13;2.42;;;;;;;25.58;31.56;96111.59;5029270;28;20285;-31
2021/12/03 03:20:44;;;;;;;3.28;2.17;;;;;;;25.60;31.45;96108.88;5030297;28;20118;-31
2021/12/03 03:23:10;;;;;;;3.53;2.05;;;;;;;25.59;31.54;96115.09;5032191;28;20036;-27
2021/12/03 03:25:35;;;;;;;3.35;1.92;;;;;;;25.59;31.56;96112.47;5029959;28;20029;-31
2021/12/03 03:28:01;;;;;;;4.20;2.33;;;;;;;25.59;31.37;96117.69;5030868;28;20069;-32
2021/12/03 03:30:26;;;;;;;4.70;2.25;;;;;;;25.59;31.35;96128.19;5033996;28;20024;-31
2021/12/03 03:32:52;;;;;;;3.78;1.95;;;;;;;25.57;31.56;96126.53;5031649;28;20086;-31
2021/12/03 03:35:17;;;;;;;3.50;2.13;;;;;;;25.56;31.57;96137.94;5014295;28;20029;-33
2021/12/03 03:37:42;;;;;;;5.95;2.35;;;;;;;25.56;31.42;96134.47;5032023;28;20029;-34
2021/12/03 03:40:08;;;;;;;4.68;2.10;;;;;;;25.56;31.47;96137.09;5031844;28;20632;-28
2021/12/03 03:42:34;;;;;;;3.28;1.88;;;;;;;25.57;31.42;96141.41;5030483;28;20052;-29
2021/12/03 03:45:00;;;;;;;3.22;2.20;;;;;;;25.56;31.59;96145.81;5030516;28;20035;-31
2021/12/03 03:47:25;;;;;;;2.72;1.90;;;;;;;25.55;31.51;96144.09;5029593;28;20115;-32
2021/12/03 03:49:51;;;;;;;3.05;2.15;;;;;;;25.55;31.39;96144.09;5032085;28;23508;-31
2021/12/03 03:52:16;;;;;;;3.70;2.22;;;;;;;25.55;31.67;96144.09;5032994;28;20028;-30
2021/12/03 03:54:41;;;;;;;4.85;2.20;;;;;;;25.55;31.58;96149.34;5030517;28;20041;-33
2021/12/03 03:57:07;;;;;;;3.53;1.83;;;;;;;25.56;31.31;96155.47;5013490;28;20051;-32
2021/12/03 03:59:32;;;;;;;3.10;2.05;;;;;;;25.55;31.60;96153.75;5030512;28;20033;-30
2021/12/03 04:01:58;;;;;;;2.60;1.83;;;;;;;25.55;31.61;96162.44;5032735;28;20029;-33
2021/12/03 04:04:25;;;;;;;3.55;1.85;;;;;;;25.54;31.39;96158.16;5028985;28;20032;-33
2021/12/03 04:06:51;;;;;;;2.35;1.55;;;;;;;25.54;31.51;96158.16;5029541;28;20468;-34
2021/12/03 04:09:17;;;;;;;3.90;2.00;;;;;;;25.53;31.54;96156.47;5029266;28;20573;-35
2021/12/03 04:11:42;;;;;;;2.88;1.85;;;;;;;25.53;31.46;96161.72;5030668;28;20025;-31
2021/12/03 04:14:08;;;;;;;3.38;1.90;;;;;;;25.52;31.40;96159.19;5029923;28;20230;-31
2021/12/03 04:16:33;;;;;;;2.42;1.70;;;;;;;25.53;31.54;96174.84;5031318;28;20484;-29
2021/12/03 04:18:58;;;;;;;2.67;1.70;;;;;;;25.52;31.50;96173.13;5032540;28;20035;-28
2021/12/03 04:21:24;;;;;;;2.35;1.65;;;;;;;25.53;31.54;96173.97;5028865;28;20075;-32
2021/12/03 04:23:50;;;;;;;2.75;1.90;;;;;;;25.52;31.43;96181.00;5038236;28;20108;-29
2021/12/03 04:26:15;;;;;;;3.50;1.90;;;;;;;25.52;31.44;96180.19;5037446;28;20583;-33
2021/12/03 04:28:41;;;;;;;2.50;1.50;;;;;;;25.52;31.56;96183.63;5036112;28;20049;-30
2021/12/03 04:31:06;;;;;;;2.40;1.40;;;;;;;25.52;31.54;96180.19;5041666;28;20029;-31
2021/12/03 04:33:32;;;;;;;4.72;2.00;;;;;;;25.50;31.46;96180.25;5042471;28;20494;-30
2021/12/03 04:35:57;;;;;;;2.58;1.70;;;;;;;25.51;31.53;96189.81;5043320;28;20021;-32
2021/12/03 04:38:23;;;;;;;3.03;1.90;;;;;;;25.51;31.50;96186.38;5030034;28;20391;-32
2021/12/03 04:40:48;;;;;;;3.30;1.55;;;;;;;25.51;31.55;96194.25;5031622;28;20029;-34
2021/12/03 04:43:13;;;;;;;1.95;1.50;;;;;;;25.51;31.66;96184.56;5030942;28;20032;-33
2021/12/03 04:45:39;;;;;;;2.85;1.60;;;;;;;25.51;31.61;96192.44;5031806;28;20995;-31
2021/12/03 04:48:04;;;;;;;1.83;1.30;;;;;;;25.47;31.55;96185.69;5028657;28;20113;-28
2021/12/03 04:50:32;;;;;;;2.33;1.42;;;;;;;25.49;31.63;96196.94;5031572;28;21158;-30
2021/12/03 04:52:58;;;;;;;3.22;1.60;;;;;;;25.49;31.56;96199.56;5032141;28;20032;-34
2021/12/03 04:55:23;;;;;;;1.85;1.15;;;;;;;25.49;31.67;96202.19;5028244;28;20017;-34
2021/12/03 04:57:53;;;;;;;2.88;1.80;;;;;;;25.50;31.43;96208.28;5031125;28;20832;-32
2021/12/03 05:00:28;;;;;;;2.15;1.38;;;;;;;25.48;31.46;96205.75;5029520;28;20032;-30
2021/12/03 05:02:54;;;;;;;1.42;1.20;;;;;;;25.48;31.58;96221.50;5030474;28;20039;-32
2021/12/03 05:05:22;;;;;;;2.25;1.63;;;;;;;25.48;31.58;96221.50;5029392;28;20024;-30
2021/12/03 05:08:02;;;;;;;8.27;1.75;;;;;;;25.47;30.75;96219.78;5039588;28;20116;-31
2021/12/03 05:10:28;;;;;;;5.85;1.60;;;;;;;25.44;30.68;96210.34;5035051;28;20404;-31
2021/12/03 05:12:59;;;;;;;1.63;1.17;;;;;;;25.43;30.90;96213.91;5037745;28;20025;-33
2021/12/03 05:15:25;;;;;;;1.90;1.30;;;;;;;25.44;31.28;96220.00;5037822;28;20117;-28
2021/12/03 05:17:50;;;;;;;2.80;1.13;;;;;;;25.44;31.24;96222.63;5040884;28;20256;-34
2021/12/03 05:20:16;;;;;;;2.70;1.30;;;;;;;25.43;31.15;96224.41;5041056;28;20036;-31
2021/12/03 05:22:41;;;;;;;2.58;1.30;;;;;;;25.43;31.26;96213.91;5039079;28;20040;-31
2021/12/03 05:25:07;;;;;;;1.83;1.30;;;;;;;25.44;31.35;96220.00;5026755;28;20036;-34
2021/12/03 05:27:33;;;;;;;2.28;1.40;;;;;;;25.44;31.42;96222.63;5030980;28;20032;-31
2021/12/03 05:29:58;;;;;;;5.70;1.70;;;;;;;25.42;31.36;96230.59;5029589;28;20044;-35
2021/12/03 05:32:24;;;;;;;2.65;1.25;;;;;;;25.43;31.42;96234.03;5030902;28;20621;-30
2021/12/03 05:34:49;;;;;;;1.48;1.00;;;;;;;25.43;31.34;96240.13;5027906;28;20038;-33
2021/12/03 05:37:15;;;;;;;2.13;1.38;;;;;;;25.43;31.35;96237.50;5029286;28;20016;-31
2021/12/03 05:39:40;;;;;;;1.95;1.00;;;;;;;25.44;31.52;96235.75;5013753;28;20033;-32
2021/12/03 05:42:06;;;;;;;1.63;1.10;;;;;;;25.44;31.56;96238.38;5027024;28;20376;-32
2021/12/03 05:44:31;;;;;;;2.38;1.33;;;;;;;25.44;31.38;96243.63;5027793;28;20059;-29
2021/12/03 05:46:57;;;;;;;2.40;1.20;;;;;;;25.43;31.38;96244.53;5028111;28;20039;-31
2021/12/03 05:49:23;;;;;;;2.20;1.00;;;;;;;25.44;31.47;96248.84;5022291;28;20994;-31
2021/12/03 05:51:48;;;;;;;2.35;1.10;;;;;;;25.44;31.32;96256.72;5036581;28;20607;-30
2021/12/03 05:54:13;;;;;;;4.05;0.90;;;;;;;25.44;31.32;96261.97;5029068;28;20453;-29
2021/12/03 05:56:39;;;;;;;1.65;1.10;;;;;;;25.43;31.54;96266.38;5028495;28;20384;-33
2021/12/03 05:59:04;;;;;;;2.97;1.30;;;;;;;25.40;31.59;96260.47;5029310;28;20359;-31
2021/12/03 06:01:30;;;;;;;2.03;1.27;;;;;;;25.44;31.54;96272.47;5030260;28;20035;-28
2021/12/03 06:03:55;;;;;;;6.10;1.40;;;;;;;25.44;31.36;96272.47;5030921;28;20021;-34
2021/12/03 06:06:21;;;;;;;2.22;1.00;;;;;;;25.44;31.49;96277.72;5028124;28;20123;-28
2021/12/03 06:08:46;;;;;;;7.22;1.05;;;;;;;25.43;31.52;96281.25;5033268;28;20033;-29
2021/12/03 06:11:12;;;;;;;1.80;1.20;;;;;;;25.42;31.29;96275.19;5040296;28;20067;-30
2021/12/03 06:13:39;;;;;;;1.60;1.08;;;;;;;25.43;31.29;96279.47;5029245;28;23121;-32
2021/12/03 06:16:08;;;;;;;2.10;1.08;;;;;;;25.44;31.44;96282.97;5032968;28;20673;-29
2021/12/03 06:18:34;;;;;;;1.75;1.00;;;;;;;25.43;31.55;96281.25;5034675;28;20048;-33
2021/12/03 06:21:01;;;;;;;1.67;1.00;;;;;;;25.43;31.29;96279.47;5027665;28;21733;-31
2021/12/03 06:23:26;;;;;;;2.33;1.13;;;;;;;25.43;31.50;96281.25;5027636;28;20298;-33
2021/12/03 06:25:51;;;;;;;2.00;1.00;;;;;;;25.43;31.45;96281.25;5036953;28;20029;-33
2021/12/03 06:28:17;;;;;;;4.35;1.08;;;;;;;25.43;31.35;96286.50;5035315;28;20032;-30
2021/12/03 06:30:42;;;;;;;1.98;1.00;;;;;;;25.42;31.36;96296.16;5031960;28;20033;-33
2021/12/03 06:33:08;;;;;;;2.08;0.95;;;;;;;25.42;31.50;96303.19;5030154;28;20033;-34
2021/12/03 06:35:33;;;;;;;1.45;0.90;;;;;;;25.43;31.28;96304.84;5026667;28;20021;-28
2021/12/03 06:37:58;;;;;;;2.65;1.20;;;;;;;25.43;31.41;96294.38;5029612;28;20368;-30
2021/12/03 06:40:25;;;;;;;1.63;1.17;;;;;;;25.43;31.34;96297.00;5028412;28;20044;-31
2021/12/03 06:42:51;;;;;;;2.00;0.85;;;;;;;25.43;31.41;96291.75;5027482;28;20600;-29
2021/12/03 06:45:16;;;;;;;1.70;1.00;;;;;;;25.42;31.52;96295.31;5028490;28;20028;-29
2021/12/03 06:47:42;;;;;;;4.82;1.45;;;;;;;25.42;30.66;96300.56;5028869;28;20445;-33
2021/12/03 06:50:09;;;;;;;2.40;1.30;;;;;;;25.41;30.77;96306.75;5027873;28;20549;-31
2021/12/03 06:52:37;;;;;;;3.75;1.00;;;;;;;25.41;30.78;96298.88;5028086;28;20483;-32
2021/12/03 06:55:04;;;;;;;2.55;0.90;;;;;;;25.40;31.08;96308.50;5030609;28;20087;-33
2021/12/03 06:57:29;;;;;;;2.05;0.90;;;;;;;25.40;31.12;96305.88;5028743;28;20040;-29
2021/12/03 06:59:55;;;;;;;1.63;0.70;;;;;;;25.41;31.14;96309.38;5029632;28;20033;-32
2021/12/03 07:02:20;;;;;;;1.40;0.95;;;;;;;25.42;31.16;96317.16;5026026;28;20033;-31
2021/12/03 07:04:46;;;;;;;1.20;0.82;;;;;;;25.41;31.24;96319.84;5028124;28;20021;-28
2021/12/03 07:07:11;;;;;;;1.17;0.70;;;;;;;25.42;31.17;96324.16;5026553;28;20901;-32
2021/12/03 07:09:37;;;;;;;1.20;0.90;;;;;;;25.43;31.22;96320.59;5027681;28;20090;-30
2021/12/03 07:12:02;;;;;;;2.47;1.08;;;;;;;25.45;31.33;96331.84;5027792;28;20033;-27
2021/12/03 07:14:28;;;;;;;2.42;0.70;;;;;;;25.43;31.32;96334.56;5030871;28;20504;-32
2021/12/03 07:16:53;;;;;;;2.35;0.82;;;;;;;25.43;31.33;96333.72;5030950;28;20086;-29
2021/12/03 07:19:19;;;;;;;1.15;0.80;;;;;;;25.44;31.35;96336.25;5034363;28;20847;-33
2021/12/03 07:21:44;;;;;;;3.05;1.17;;;;;;;25.40;31.28;96323.41;5035922;28;20264;-28
2021/12/03 07:24:10;;;;;;;1.95;0.90;;;;;;;25.45;31.42;96342.34;5036308;28;20046;-32
2021/12/03 07:26:35;;;;;;;1.80;0.90;;;;;;;25.44;31.35;96340.66;5024606;28;20526;-30
2021/12/03 07:29:00;;;;;;;0.90;0.65;;;;;;;25.46;31.36;96344.03;5039179;28;20078;-31
2021/12/03 07:31:26;;;;;;;3.17;0.88;;;;;;;25.45;31.24;96345.81;5030263;28;20029;-31
2021/12/03 07:33:53;;;;;;;4.20;0.85;;;;;;;25.46;31.21;96354.53;5030683;28;20072;-32
2021/12/03 07:36:19;;;;;;;3.65;0.75;;;;;;;25.44;31.17;96346.75;5030220;28;20027;-32
2021/12/03 07:38:45;;;;;;;5.88;1.55;;;;;;;25.45;31.00;96342.34;5032052;28;20044;-31
2021/12/03 07:41:10;;;;;;;7.70;2.10;;;;;;;25.44;31.04;96346.75;5026372;28;20044;-31
2021/12/03 07:43:35;;;;;;;9.25;2.13;;;;;;;25.45;30.98;96355.47;5031757;28;20025;-31
2021/12/03 07:46:02;;;;;;;7.70;2.05;;;;;;;25.45;31.16;96352.84;5030295;28;20423;-30
2021/12/03 07:48:27;;;;;;;9.05;2.00;;;;;;;25.45;31.16;96358.91;5028069;28;20060;-29
2021/12/03 07:50:53;;;;;;;6.63;2.25;;;;;;;25.45;31.22;96366.78;5016526;28;20132;-32
2021/12/03 07:53:19;;;;;;;11.48;2.13;;;;;;;25.42;29.31;96353.88;5020624;28;20061;-28
2021/12/03 07:55:46;;;;;;;13.00;2.15;;;;;;;25.39;28.37;96353.19;5020054;28;20017;-30
2021/12/03 07:58:12;;;;;;;6.28;2.10;;;;;;;25.37;28.17;96360.31;5003671;28;20034;-30
2021/12/03 08:00:37;;;;;;;5.88;2.28;;;;;;;25.31;27.90;96366.75;5020763;28;20363;-28
2021/12/03 08:03:03;;;;;;;3.88;1.88;;;;;;;25.24;27.67;96361.03;5021822;28;22086;-28
2021/12/03 08:05:28;;;;;;;5.10;2.20;;;;;;;25.23;27.65;96356.72;5023259;28;20044;-29
2021/12/03 08:07:54;;;;;;;5.90;2.38;;;;;;;25.19;27.76;96357.81;5021716;28;20036;-29
2021/12/03 08:10:19;;;;;;;8.10;2.10;;;;;;;25.16;27.42;96364.09;5018668;28;20032;-29
2021/12/03 08:12:47;;;;;;;8.48;2.85;;;;;;;25.12;27.58;96356.47;5020689;28;20036;-30
2021/12/03 08:15:13;;;;;;;5.72;2.22;;;;;;;25.11;27.52;96365.28;5021788;28;20033;-30
2021/12/03 08:17:39;;;;;;;4.07;2.10;;;;;;;25.08;27.38;96363.69;5019240;28;20033;-31
2021/12/03 08:20:06;;;;;;;5.15;2.40;;;;;;;25.06;27.31;96373.41;5020948;28;20064;-31
2021/12/03 08:22:31;;;;;;;6.45;2.55;;;;;;;25.03;26.97;96369.19;5004951;28;20041;-32
2021/12/03 08:24:57;;;;;;;5.47;3.15;;;;;;;25.01;27.22;96360.56;5027875;28;20079;-33
2021/12/03 08:27:22;;;;;;;7.53;3.42;;;;;;;24.99;27.09;96362.44;5027523;28;20020;-31
2021/12/03 08:29:47;;;;;;;4.63;2.30;;;;;;;24.98;26.99;96354.66;5028888;28;20040;-32
2021/12/03 08:32:13;;;;;;;6.80;2.47;;;;;;;24.98;26.97;96365.16;5025910;28;20036;-34
2021/12/03 08:34:38;;;;;;;5.82;2.38;;;;;;;24.97;26.99;96364.28;5019065;28;20036;-28
2021/12/03 08:37:06;;;;;;;6.57;2.78;;;;;;;24.96;26.97;96362.59;5021125;28;20601;-31
2021/12/03 08:39:31;;;;;;;7.32;4.00;;;;;;;24.96;26.87;96357.38;5020140;28;20032;-33
2021/12/03 08:41:57;;;;;;;3.67;2.50;;;;;;;24.93;26.64;96368.00;5020008;28;20033;-34
2021/12/03 08:44:22;;;;;;;4.47;2.20;;;;;;;24.92;26.23;96355.84;5018494;28;20029;-32
2021/12/03 08:46:52;;;;;;;5.18;2.08;;;;;;;24.89;26.33;96366.50;5022896;28;20031;-33
2021/12/03 08:49:31;;;;;;;9.40;2.28;;;;;;;24.87;26.32;96357.88;5022797;28;20052;-30
2021/12/03 08:57:13;;;;;;;4.00;1.75;;;;;;;24.83;26.53;96367.66;5021215;28;20082;-32
2021/12/03 08:59:38;;;;;;;3.38;1.65;;;;;;;24.83;26.39;96372.06;5022234;28;20036;-28
2021/12/03 09:02:04;;;;;;;5.05;2.05;;;;;;;24.81;26.51;96366.91;5019802;28;20037;-28
2021/12/03 09:04:29;;;;;;;4.13;1.80;;;;;;;24.82;26.53;96370.38;5019730;28;20036;-31
2021/12/03 09:06:57;;;;;;;3.92;2.00;;;;;;;24.82;26.55;96370.38;5020954;28;20542;-30
2021/12/03 09:09:22;;;;;;;4.28;1.95;;;;;;;24.83;26.46;96382.53;5021342;28;20029;-31
2021/12/03 09:11:47;;;;;;;3.95;1.63;;;;;;;24.85;27.25;96375.44;5021512;28;20044;-28
2021/12/03 09:14:37;;;;;;;4.32;1.65;;;;;;;24.88;27.56;96381.38;5020953;28;20028;-29
2021/12/03 09:23:01;;;;;;;4.35;1.67;;;;;;;25.04;28.60;96383.13;5021672;28;20083;-33
2021/12/03 09:25:06;;;;;;;3.17;1.50;;;;;;;25.10;28.73;96384.56;5007085;28;20045;-32
2021/12/03 09:27:32;;;;;;;3.65;1.30;;;;;;;25.14;29.00;96386.09;5026033;28;20049;-32
2021/12/03 09:29:57;;;;;;;4.28;1.25;;;;;;;25.18;29.08;96382.34;5018456;28;20747;-33
2021/12/03 09:32:26;;;;;;;2.53;1.60;;;;;;;25.22;28.19;96381.25;5019850;28;20021;-34
2021/12/03 09:34:52;;;;;;;2.75;1.50;;;;;;;25.13;22.71;96384.41;5021819;28;20399;-33
2021/12/03 09:37:17;;;;;;;6.35;1.70;;;;;;;24.92;20.60;96368.94;5020114;28;20021;-34
2021/12/03 09:39:45;;;;;;;5.47;1.60;;;;;;;24.70;20.76;96383.22;5021756;28;20487;-34
2021/12/03 09:42:10;;;;;;;9.45;1.50;;;;;;;24.53;21.85;96371.88;5019597;28;20024;-30
2021/12/03 09:44:46;;;;;;;2.70;1.30;;;;;;;24.43;22.57;96365.47;5015160;28;23514;-33
2021/12/03 09:47:15;;;;;;;4.95;1.48;;;;;;;24.39;23.49;96370.03;5019755;28;20514;-34
2021/12/03 09:49:41;;;;;;;5.82;1.25;;;;;;;24.39;24.14;96369.16;5020217;28;20056;-33
2021/12/03 09:55:29;;;;;;;4.05;1.30;;;;;;;24.43;24.79;96369.84;5018431;28;20025;-31
2021/12/03 09:57:41;;;;;;;3.63;1.20;;;;;;;24.48;25.35;96367.84;5013176;28;20474;-32
2021/12/03 10:00:19;;;;;;;2.33;1.13;;;;;;;24.51;25.38;96363.28;5020012;28;20357;-34
2021/12/03 10:13:47;;;;;;;4.13;1.45;;;;;;;24.75;26.31;96357.59;5021100;28;20495;-32
2021/12/03 10:18:58;;;;;;;4.53;1.40;;;;;;;24.83;26.88;96361.56;5021535;28;20601;-31
2021/12/03 10:24:48;;;;;;;8.98;1.67;;;;;;;24.92;27.08;96348.84;5025579;28;20467;-34
2021/12/03 10:48:46;;;;;;;9.23;2.00;;;;;;;24.98;25.83;96342.38;5022083;28;20064;-31
2021/12/03 11:39:26;;;;;;;9.90;2.05;;;;;;;24.31;25.45;96287.56;5028923;28;20153;-33
2021/12/03 12:41:08;;;;;;;6.47;2.13;;;;;;;24.76;26.49;96230.06;5043662;28;20040;-33
2021/12/03 13:27:04;;;;;;;14.95;2.30;;;;;;;25.14;28.34;96219.09;5039164;28;20033;-28
2021/12/03 13:56:19;;;;;;;11.10;2.40;;;;;;;25.34;29.52;96192.63;5015214;28;20141;-32
2021/12/03 14:00:04;;;;;;;8.82;2.03;;;;;;;25.43;29.52;96195.53;5019020;28;20033;-31
2021/12/03 14:48:45;;;;;;;4.45;1.60;;;;;;;25.66;29.65;96150.50;5046474;28;20122;-29
2021/12/03 14:57:17;;;;;;;4.93;1.48;;;;;;;25.71;29.59;96145.81;5042402;28;20563;-26
2021/12/03 15:08:29;;;;;;;4.55;1.33;;;;;;;25.71;29.01;96143.19;5041078;28;20572;-29
2021/12/03 15:32:10;;;;;;;7.28;1.60;;;;;;;25.51;26.82;96128.66;5047351;28;20488;-29
2021/12/03 15:37:44;;;;;;;5.22;1.42;;;;;;;25.48;27.46;96126.22;5047404;28;20698;-33
2021/12/03 16:06:46;;;;;;;7.40;1.20;;;;;;;25.56;28.85;96113.50;5042438;28;20151;-29
2021/12/03 16:09:18;;;;;;;8.88;1.42;;;;;;;25.56;28.79;96109.06;5045068;28;20071;-26
2021/12/03 16:11:59;;;;;;;7.07;2.15;;;;;;;25.56;28.22;96106.44;5046236;28;20025;-31
2021/12/03 16:47:17;;;;;;;5.50;1.77;;;;;;;24.50;25.55;96077.84;5041397;28;20399;-30
2021/12/03 16:52:33;;;;;;;5.45;1.75;;;;;;;24.58;26.20;96085.25;5044932;28;20574;-32
2021/12/03 16:55:18;;;;;;;7.55;2.00;;;;;;;24.63;26.58;96091.06;5047568;28;20036;-31
2021/12/03 16:57:45;;;;;;;4.80;1.95;;;;;;;24.68;26.03;96089.03;5044231;28;20139;-32
2021/12/03 17:00:26;;;;;;;8.30;1.60;;;;;;;24.71;26.60;96086.19;5043203;28;20554;-29
2021/12/03 17:24:27;;;;;;;5.10;1.58;;;;;;;-148.56;100.00;61375.16;5045156;28;20166;-30
2021/12/03 17:57:12;;;;;;;10.55;1.90;;;;;;;-148.56;100.00;61375.16;5022183;28;20540;-32
2021/12/03 18:04:40;;;;;;;15.90;2.13;;;;;;;-148.56;100.00;61375.16;5019001;28;20035;-31
2021/12/03 18:08:11;;;;;;;17.17;2.53;;;;;;;-148.56;100.00;61375.16;5014410;28;20033;-31
2021/12/03 18:12:00;;;;;;;7.07;1.60;;;;;;;-148.56;100.00;61375.16;5022035;28;20080;-32
2021/12/03 18:58:51;;;;;;;3.83;1.13;;;;;;;-148.56;100.00;61375.16;5010179;28;20044;-29
2021/12/03 19:02:14;;;;;;;2.50;1.05;;;;;;;-148.56;100.00;61375.16;5013053;28;20111;-29
2021/12/03 19:06:05;;;;;;;4.78;1.10;;;;;;;-148.56;100.00;61375.16;5001952;28;20345;-26
2021/12/03 19:09:36;;;;;;;5.78;1.10;;;;;;;-148.56;100.00;61375.16;5001963;28;20036;-28
2021/12/03 19:13:09;;;;;;;4.38;1.10;;;;;;;-148.56;100.00;61375.16;5009419;28;20110;-33
2021/12/03 19:16:34;;;;;;;4.47;1.00;;;;;;;-148.56;100.00;61375.16;5022006;28;20131;-32
2021/12/03 19:20:00;;;;;;;3.35;0.95;;;;;;;-148.56;100.00;61375.16;5023657;28;20032;-29
2021/12/03 19:23:24;;;;;;;3.50;0.95;;;;;;;-148.56;100.00;61375.16;5028914;28;20032;-29
2021/12/03 19:26:48;;;;;;;2.72;1.08;;;;;;;-148.56;100.00;61375.16;5030308;28;20793;-33
2021/12/03 19:30:15;;;;;;;4.72;0.90;;;;;;;-148.56;100.00;61375.16;5029629;28;20033;-30
2021/12/03 19:33:40;;;;;;;2.25;1.08;;;;;;;-148.56;100.00;61375.16;5028890;28;20044;-30
2021/12/03 19:37:04;;;;;;;8.50;1.20;;;;;;;-148.56;100.00;61375.16;5026834;28;20471;-30
2021/12/03 19:40:33;;;;;;;6.07;0.98;;;;;;;-148.56;100.00;61375.16;5022263;28;20052;-34
2021/12/03 19:44:00;;;;;;;6.93;0.90;;;;;;;-148.56;100.00;61375.16;5024202;28;20368;-30